• Join FlightAware (Why Join?)
  • Login
  • US Flag 
09:08AM EDT


 

Airport Tracker/Info


-or-


 

Live Flight TrackerFlight Track Log ✈ TAM3916 ✈ 21-Oct-2013 ✈ SBSP / CGH - SBRJ / SDU

Flight Track Log - Related Links

Times and Time Zones

All times are in EDT time to prevent confusion due to time zone crossing. See the TAM3916 flight status page for this flight to view local times or setup timezone preferences in your user account.

Time Position Orientation Groundspeed Altitude Reporting Facility
EDT Latitude Longitude Course Direction KTS MPH feet Rate Location/Type
08:45AM -23.2275 -44.6583 78° East  Level Estimated
08:46AM -23.2069 -44.5588 77° East  Level Estimated
08:47AM -23.1862 -44.4593 77° East  Level Estimated
08:48AM -23.1655 -44.3598 77° East  Level Estimated
08:49AM -23.1446 -44.2604 77° East  Level Estimated
08:50AM -23.1238 -44.1610 77° East  Level Estimated
08:51AM -23.1028 -44.0616 77° East  Level Estimated
08:52AM -23.0819 -43.9623 77° East  Level Estimated
08:53AM -23.0608 -43.8629 77° East  Level Estimated
08:54AM -23.0397 -43.7636 77° East  Level Estimated
08:55AM -23.0185 -43.6644 77° East  Level Estimated
08:56AM -22.9972 -43.5652 77° East  Level Estimated
08:57AM -22.9759 -43.4660 77° East  Level Estimated
08:58AM -22.9546 -43.3668 77° East  Level Estimated
08:59AM -22.9331 -43.2677 77° East  Level Estimated
09:00AM -22.9116 -43.1686 77° East  Level Estimated
09:01AM -22.9105 -43.1631 77° East  Level Estimated
09:02AM -22.9105 -43.1631 250° West  Level Estimated
09:03AM -22.9105 -43.1631 250° West  Level Estimated
09:04AM -22.9105 -43.1631 250° West  Level Estimated
09:05AM -22.9105 -43.1631 250° West  Level Estimated
09:06AM -22.9105 -43.1631 250° West  Level Estimated
09:07AM -22.9105 -43.1631 250° West  Level Estimated
09:08AM -22.9105 -43.1631 250° West  Level Estimated
09:09AM -22.9105 -43.1631 250° West  Level Estimated
09:10AM -22.9105 -43.1631 250° West  Level Estimated
09:11AM -22.9105 -43.1631 250° West  Level Estimated
09:12AM -22.9105 -43.1631 250° West  Level Estimated
09:13AM -22.9105 -43.1631 250° West  Level Estimated
09:14AM -22.9105 -43.1631 250° West  Level Estimated
09:15AM -22.9105 -43.1631 250° West  Level Estimated
09:16AM -22.9105 -43.1631 250° West  Level Estimated